createdAt,value
2023-04-02T00:01:26.797Z,70.44
2023-04-02T00:04:26.359Z,70.38
2023-04-02T00:07:30.713Z,70.32
2023-04-02T00:10:06.137Z,70.40
2023-04-02T00:13:07.559Z,70.42
2023-04-02T00:15:59.588Z,70.38
2023-04-02T00:18:41.728Z,70.34
2023-04-02T00:21:38.744Z,70.48
2023-04-02T00:24:31.533Z,70.38
2023-04-02T00:27:15.740Z,70.30
2023-04-02T00:30:00.145Z,70.37
2023-04-02T00:32:40.342Z,70.32
2023-04-02T00:35:34.310Z,70.42
2023-04-02T00:38:13.216Z,70.27
2023-04-02T00:41:00.232Z,70.36
2023-04-02T00:43:54.526Z,70.38
2023-04-02T00:46:49.681Z,70.38
2023-04-02T00:49:36.907Z,70.41
2023-04-02T00:52:32.262Z,70.42
2023-04-02T00:55:13.625Z,70.43
2023-04-02T00:57:54.025Z,70.36
2023-04-02T01:00:34.622Z,70.34
2023-04-02T01:03:38.854Z,70.45
2023-04-02T01:06:17.228Z,70.42
2023-04-02T01:09:10.584Z,70.39
2023-04-02T01:12:34.714Z,70.39
2023-04-02T01:15:31.219Z,70.28
2023-04-02T01:18:31.433Z,70.30
2023-04-02T01:21:23.669Z,70.31
2023-04-02T01:24:16.450Z,70.38
2023-04-02T01:27:16.206Z,70.39
2023-04-02T01:29:59.720Z,70.32
2023-04-02T01:32:51.958Z,70.32
2023-04-02T01:35:47.250Z,70.25
2023-04-02T01:38:27.283Z,70.28
2023-04-02T01:41:27.952Z,70.31
2023-04-02T01:44:26.371Z,70.24
2023-04-02T01:47:20.973Z,70.25
2023-04-02T01:50:31.444Z,70.11
2023-04-02T01:53:06.442Z,70.10
2023-04-02T01:56:01.095Z,70.17
2023-04-02T01:58:53.305Z,70.04
2023-04-02T02:01:51.853Z,69.94
2023-04-02T02:04:44.131Z,69.90
2023-04-02T02:07:36.166Z,69.93
2023-04-02T02:10:30.456Z,69.86
2023-04-02T02:13:05.382Z,69.86
2023-04-02T02:16:00.288Z,69.86
2023-04-02T02:18:54.971Z,69.91
2023-04-02T02:21:42.690Z,69.93
2023-04-02T02:24:37.240Z,69.83
2023-04-02T02:27:46.370Z,69.79
2023-04-02T02:30:41.399Z,69.90
2023-04-02T02:33:38.217Z,69.90
2023-04-02T02:36:35.002Z,69.76
2023-04-02T02:39:34.270Z,69.82
2023-04-02T02:42:19.993Z,69.72
2023-04-02T02:45:17.186Z,69.61
2023-04-02T02:48:00.114Z,69.55
2023-04-02T02:50:38.084Z,69.48
2023-04-02T02:53:20.919Z,69.56
2023-04-02T02:56:13.652Z,69.57
2023-04-02T02:59:09.330Z,69.53
2023-04-02T03:02:02.402Z,69.57
2023-04-02T03:04:51.235Z,69.57
2023-04-02T03:07:43.271Z,69.55
2023-04-02T03:10:24.531Z,69.65
2023-04-02T03:13:23.925Z,69.69
2023-04-02T03:16:08.648Z,69.50
2023-04-02T03:19:03.585Z,69.62
2023-04-02T03:22:03.112Z,69.65
2023-04-02T03:25:03.014Z,69.63
2023-04-02T03:28:01.832Z,69.63
2023-04-02T03:30:43.669Z,69.76
2023-04-02T03:33:29.151Z,69.75
2023-04-02T03:36:28.529Z,69.73
2023-04-02T03:39:19.658Z,69.67
2023-04-02T03:42:04.119Z,69.69
2023-04-02T03:45:00.014Z,69.77
2023-04-02T03:47:38.195Z,69.74
2023-04-02T03:50:20.412Z,69.73
2023-04-02T03:53:13.675Z,69.64
2023-04-02T03:56:07.741Z,69.79
2023-04-02T03:58:51.043Z,69.71
2023-04-02T04:01:49.061Z,69.86
2023-04-02T04:04:43.021Z,69.91
2023-04-02T04:07:28.996Z,69.92
2023-04-02T04:10:25.381Z,69.74
2023-04-02T04:13:24.293Z,69.92
2023-04-02T04:16:09.666Z,69.78
2023-04-02T04:19:06.600Z,69.90
2023-04-02T04:21:38.534Z,69.88
2023-04-02T04:24:23.924Z,69.96
2023-04-02T04:27:24.519Z,69.93
2023-04-02T04:30:24.399Z,70.01
2023-04-02T04:33:23.380Z,70.05
2023-04-02T04:36:28.564Z,70.10
2023-04-02T04:39:29.653Z,70.10
2023-04-02T04:42:25.222Z,70.24
2023-04-02T04:45:07.703Z,70.13
2023-04-02T04:48:04.395Z,70.17
2023-04-02T04:51:00.607Z,70.19
2023-04-02T04:53:55.119Z,70.10
2023-04-02T04:56:52.612Z,70.10
2023-04-02T04:59:48.850Z,70.31
2023-04-02T05:02:28.840Z,70.30
2023-04-02T05:05:22.806Z,70.26
2023-04-02T05:08:20.366Z,70.51
2023-04-02T05:11:03.022Z,70.54
2023-04-02T05:13:59.651Z,70.57
2023-04-02T05:16:41.768Z,70.36
2023-04-02T05:19:36.917Z,70.31
2023-04-02T05:22:26.027Z,70.31
2023-04-02T05:25:24.333Z,70.08
2023-04-02T05:28:21.330Z,70.18
2023-04-02T05:31:17.538Z,70.23
2023-04-02T05:34:11.617Z,70.12
2023-04-02T05:37:06.491Z,70.03
2023-04-02T05:39:51.296Z,69.92
2023-04-02T05:42:49.308Z,69.81
2023-04-02T05:45:29.592Z,69.95
2023-04-02T05:48:18.525Z,69.92
2023-04-02T05:51:16.813Z,69.98
2023-04-02T05:53:59.627Z,70.07
2023-04-02T05:56:55.132Z,69.77
2023-04-02T05:59:52.725Z,69.62
2023-04-02T06:02:54.873Z,69.34
2023-04-02T06:05:48.054Z,69.20
2023-04-02T06:08:45.142Z,69.20
2023-04-02T06:11:45.397Z,69.25
2023-04-02T06:14:37.420Z,69.26
2023-04-02T06:17:30.062Z,69.29
2023-04-02T06:20:23.065Z,69.28
2023-04-02T06:23:19.615Z,69.14
2023-04-02T06:26:17.780Z,69.02
2023-04-02T06:28:56.022Z,68.74
2023-04-02T06:31:51.700Z,68.48
2023-04-02T06:34:30.780Z,68.56
2023-04-02T06:37:28.997Z,68.45
2023-04-02T06:40:40.444Z,68.41
2023-04-02T06:43:20.323Z,68.40
2023-04-02T06:45:58.636Z,68.38
2023-04-02T06:48:42.751Z,68.30
2023-04-02T06:51:37.635Z,68.26
2023-04-02T06:54:29.734Z,68.31
2023-04-02T06:57:21.898Z,68.23
2023-04-02T07:00:26.467Z,68.02
2023-04-02T07:03:22.598Z,68.23
2023-04-02T07:05:54.668Z,68.14
2023-04-02T07:08:26.748Z,68.04
2023-04-02T07:11:21.183Z,68.14
2023-04-02T07:13:54.191Z,67.99
2023-04-02T07:16:47.018Z,68.22
2023-04-02T07:19:39.086Z,68.39
2023-04-02T07:22:31.287Z,68.52
2023-04-02T07:25:23.407Z,68.71
2023-04-02T07:27:58.879Z,68.62
2023-04-02T07:30:51.369Z,68.51
2023-04-02T07:33:28.321Z,68.33
2023-04-02T07:36:22.493Z,68.30
2023-04-02T07:39:14.540Z,68.41
2023-04-02T07:41:57.579Z,68.27
2023-04-02T07:44:49.612Z,68.19
2023-04-02T07:47:42.622Z,68.12
2023-04-02T07:50:35.037Z,68.27
2023-04-02T07:53:31.900Z,68.20
2023-04-02T07:56:25.792Z,68.56
2023-04-02T07:59:17.833Z,68.72
2023-04-02T08:02:15.869Z,68.77
2023-04-02T08:05:09.078Z,68.77
2023-04-02T08:07:43.483Z,68.73
2023-04-02T08:10:35.490Z,68.16
2023-04-02T08:13:27.593Z,68.17
2023-04-02T08:16:19.768Z,67.75
2023-04-02T08:19:11.832Z,67.48
2023-04-02T08:22:04.103Z,68.40
2023-04-02T08:24:56.389Z,68.27
2023-04-02T08:27:51.189Z,68.23
2023-04-02T08:30:43.402Z,67.69
2023-04-02T08:33:35.762Z,67.50
2023-04-02T08:36:31.870Z,67.72
2023-04-02T08:39:24.166Z,67.12
2023-04-02T08:42:06.062Z,67.25
2023-04-02T08:45:24.352Z,67.43
2023-04-02T08:48:18.390Z,67.42
2023-04-02T08:51:21.059Z,67.14
2023-04-02T08:54:29.058Z,67.35
2023-04-02T08:57:32.609Z,67.44
2023-04-02T09:00:34.116Z,67.46
2023-04-02T09:03:31.955Z,67.09
2023-04-02T09:06:26.112Z,66.88
2023-04-02T09:09:19.859Z,67.25
2023-04-02T09:12:17.358Z,67.26
2023-04-02T09:15:24.711Z,67.17
2023-04-02T09:18:18.381Z,66.88
2023-04-02T09:21:28.269Z,67.08
2023-04-02T09:24:20.392Z,67.08
2023-04-02T09:27:21.582Z,66.96
2023-04-02T09:30:42.845Z,66.82
2023-04-02T09:33:48.345Z,66.63
2023-04-02T09:36:41.059Z,66.72
2023-04-02T09:39:33.673Z,66.92
2023-04-02T09:42:36.397Z,66.68
2023-04-02T09:45:32.568Z,66.70
2023-04-02T09:48:30.663Z,66.69
2023-04-02T09:51:25.119Z,66.61
2023-04-02T09:54:19.394Z,66.65
2023-04-02T09:57:24.237Z,66.91
2023-04-02T10:00:32.117Z,66.95
2023-04-02T10:03:28.514Z,66.82
2023-04-02T10:06:22.057Z,66.88
2023-04-02T10:09:32.497Z,66.80
2023-04-02T10:12:25.988Z,67.07
2023-04-02T10:15:22.638Z,67.39
2023-04-02T10:18:22.279Z,67.41
2023-04-02T10:21:17.988Z,67.42
2023-04-02T10:24:13.703Z,67.24
2023-04-02T10:27:17.418Z,67.16
2023-04-02T10:30:24.983Z,67.25
2023-04-02T10:33:01.374Z,67.47
2023-04-02T10:35:58.491Z,67.46
2023-04-02T10:38:45.416Z,67.32
2023-04-02T10:41:29.713Z,67.62
2023-04-02T10:44:20.774Z,67.62
2023-04-02T10:47:31.048Z,67.67
2023-04-02T10:50:32.422Z,67.34
2023-04-02T10:53:34.901Z,67.60
2023-04-02T10:56:28.631Z,67.42
2023-04-02T10:59:27.793Z,67.10
2023-04-02T11:02:31.857Z,67.25
2023-04-02T11:05:36.659Z,67.33
2023-04-02T11:08:32.590Z,67.43
2023-04-02T11:11:24.566Z,67.67
2023-04-02T11:14:18.683Z,67.66
2023-04-02T11:17:16.703Z,67.61
2023-04-02T11:20:40.646Z,67.27
2023-04-02T11:23:36.187Z,67.41
2023-04-02T11:26:47.307Z,67.24
2023-04-02T11:29:41.532Z,67.08
2023-04-02T11:32:43.620Z,66.96
2023-04-02T11:35:42.140Z,67.00
2023-04-02T11:38:54.947Z,67.05
2023-04-02T11:42:03.416Z,67.17
2023-04-02T11:44:56.198Z,67.31
2023-04-02T11:48:28.990Z,67.11
2023-04-02T11:51:56.525Z,66.74
2023-04-02T11:55:24.962Z,66.69
2023-04-02T11:58:39.623Z,66.86
2023-04-02T12:01:56.728Z,67.25
2023-04-02T12:05:22.992Z,67.50
2023-04-02T12:08:30.451Z,66.53
2023-04-02T12:11:12.200Z,66.42
2023-04-02T12:13:58.537Z,66.26
2023-04-02T12:16:52.387Z,66.24
2023-04-02T12:19:30.634Z,66.20
2023-04-02T12:22:25.541Z,66.35
2023-04-02T12:25:29.840Z,66.37
2023-04-02T12:28:22.443Z,66.20
2023-04-02T12:31:17.653Z,66.23
2023-04-02T12:34:17.446Z,66.34
2023-04-02T12:36:57.199Z,66.45
2023-04-02T12:39:55.460Z,66.46
2023-04-02T12:42:37.838Z,66.61
2023-04-02T12:45:27.251Z,66.56
2023-04-02T12:48:07.323Z,66.41
2023-04-02T12:51:00.231Z,66.19
2023-04-02T12:53:38.023Z,66.30
2023-04-02T12:56:19.677Z,66.14
2023-04-02T12:58:58.468Z,65.96
2023-04-02T13:01:33.891Z,66.26
2023-04-02T13:04:12.182Z,66.39
2023-04-02T13:07:04.418Z,66.57
2023-04-02T13:09:48.797Z,66.33
2023-04-02T13:12:34.852Z,66.42
2023-04-02T13:15:22.085Z,66.20
2023-04-02T13:18:23.500Z,66.30
2023-04-02T13:21:00.030Z,66.53
2023-04-02T13:23:41.376Z,66.52
2023-04-02T13:26:24.485Z,66.32
2023-04-02T13:29:01.582Z,66.46
2023-04-02T13:31:36.804Z,66.72
2023-04-02T13:34:29.348Z,66.73
2023-04-02T13:37:21.420Z,66.53
2023-04-02T13:39:53.567Z,66.60
2023-04-02T13:42:46.945Z,66.51
2023-04-02T13:45:27.787Z,66.38
2023-04-02T13:48:01.974Z,66.40
2023-04-02T13:50:42.997Z,66.18
2023-04-02T13:53:26.649Z,66.34
2023-04-02T13:56:19.451Z,66.44
2023-04-02T13:59:11.673Z,66.31
2023-04-02T14:02:07.564Z,66.17
2023-04-02T14:04:50.647Z,66.13
2023-04-02T14:07:56.710Z,66.23
2023-04-02T14:10:49.306Z,66.11
2023-04-02T14:13:41.408Z,66.12
2023-04-02T14:16:37.013Z,65.94
2023-04-02T14:19:34.921Z,66.01
2023-04-02T14:22:25.457Z,65.91
2023-04-02T14:25:07.687Z,65.82
2023-04-02T14:27:55.869Z,65.98
2023-04-02T14:30:56.734Z,65.99
2023-04-02T14:33:41.396Z,66.02
2023-04-02T14:36:36.921Z,65.99
2023-04-02T14:39:26.186Z,65.97
2023-04-02T14:42:23.129Z,65.90
2023-04-02T14:45:07.321Z,65.85
2023-04-02T14:47:47.529Z,65.90
2023-04-02T14:50:29.471Z,66.09
2023-04-02T14:53:25.428Z,66.23
2023-04-02T14:56:09.299Z,66.25
2023-04-02T14:58:52.739Z,66.06
2023-04-02T15:01:33.628Z,65.77
2023-04-02T15:04:32.096Z,65.93
2023-04-02T15:07:28.518Z,65.58
2023-04-02T15:10:27.357Z,65.60
2023-04-02T15:13:22.508Z,65.50
2023-04-02T15:16:19.411Z,65.49
2023-04-02T15:18:56.263Z,65.45
2023-04-02T15:22:02.146Z,65.41
2023-04-02T15:24:48.784Z,65.59
2023-04-02T15:27:59.110Z,65.61
2023-04-02T15:30:43.215Z,65.34
2023-04-02T15:33:36.879Z,65.07
2023-04-02T15:36:26.682Z,64.96
2023-04-02T15:39:42.844Z,65.03
2023-04-02T15:42:22.846Z,65.40
2023-04-02T15:45:16.340Z,65.00
2023-04-02T15:48:02.060Z,65.23
2023-04-02T15:50:48.269Z,65.19
2023-04-02T15:53:34.518Z,65.11
2023-04-02T15:56:23.003Z,64.85
2023-04-02T15:59:09.252Z,65.07
2023-04-02T16:01:50.503Z,65.09
2023-04-02T16:04:33.262Z,65.13
2023-04-02T16:07:20.426Z,65.05
2023-04-02T16:09:58.892Z,64.98
2023-04-02T16:12:38.314Z,64.92
2023-04-02T16:15:23.558Z,64.89
2023-04-02T16:17:59.867Z,64.89
2023-04-02T16:20:36.190Z,65.07
2023-04-02T16:23:34.978Z,64.82
2023-04-02T16:26:19.308Z,64.57
2023-04-02T16:29:01.945Z,64.83
2023-04-02T16:32:03.380Z,64.77
2023-04-02T16:34:45.581Z,64.74
2023-04-02T16:37:29.923Z,64.94
2023-04-02T16:40:09.223Z,64.69
2023-04-02T16:43:16.435Z,64.96
2023-04-02T16:46:20.339Z,64.96
2023-04-02T16:49:26.739Z,64.67
2023-04-02T16:52:34.467Z,64.88
2023-04-02T16:55:25.745Z,64.88
2023-04-02T16:58:15.266Z,64.82
2023-04-02T17:01:16.296Z,64.86
2023-04-02T17:04:26.944Z,64.98
2023-04-02T17:07:28.941Z,65.01
2023-04-02T17:10:32.356Z,65.16
2023-04-02T17:13:32.543Z,65.27
2023-04-02T17:16:19.931Z,65.23
2023-04-02T17:19:14.425Z,65.08
2023-04-02T17:22:01.963Z,65.32
2023-04-02T17:24:41.617Z,65.30
2023-04-02T17:27:26.593Z,65.21
2023-04-02T17:30:18.562Z,65.24
2023-04-02T17:33:14.590Z,65.17
2023-04-02T17:36:07.097Z,65.09
2023-04-02T17:38:52.194Z,65.16
2023-04-02T17:41:49.252Z,65.11
2023-04-02T17:44:53.912Z,65.18
2023-04-02T17:47:37.456Z,65.24
2023-04-02T17:50:39.255Z,65.31
2023-04-02T17:53:31.663Z,65.38
2023-04-02T17:56:19.865Z,65.35
2023-04-02T17:59:12.315Z,65.40
2023-04-02T18:02:03.851Z,65.36
2023-04-02T18:04:50.770Z,65.51
2023-04-02T18:07:32.743Z,65.45
2023-04-02T18:10:21.011Z,65.64
2023-04-02T18:13:08.157Z,65.70
2023-04-02T18:16:07.341Z,65.76
2023-04-02T18:19:05.965Z,65.86
2023-04-02T18:21:47.858Z,65.96
2023-04-02T18:24:33.920Z,66.10
2023-04-02T18:27:20.974Z,66.08
2023-04-02T18:30:14.517Z,66.19
2023-04-02T18:33:09.270Z,66.29
2023-04-02T18:35:51.396Z,66.27
2023-04-02T18:38:48.626Z,66.31
2023-04-02T18:41:44.228Z,66.53
2023-04-02T18:44:54.732Z,66.45
2023-04-02T18:47:34.156Z,66.47
2023-04-02T18:50:17.489Z,66.64
2023-04-02T18:52:52.892Z,66.69
2023-04-02T18:55:28.057Z,66.62
2023-04-02T18:58:05.048Z,66.57
2023-04-02T19:00:59.557Z,66.57
2023-04-02T19:03:37.727Z,66.65
2023-04-02T19:06:15.633Z,66.64
2023-04-02T19:09:15.183Z,66.66
2023-04-02T19:11:49.227Z,66.67
2023-04-02T19:14:32.242Z,66.78
2023-04-02T19:17:20.927Z,66.82
2023-04-02T19:20:04.789Z,66.88
2023-04-02T19:22:45.717Z,66.95
2023-04-02T19:25:37.827Z,67.10
2023-04-02T19:28:34.944Z,66.88
2023-04-02T19:31:29.249Z,66.70
2023-04-02T19:34:16.645Z,66.77
2023-04-02T19:37:16.738Z,66.73
2023-04-02T19:40:30.731Z,66.75
2023-04-02T19:43:23.348Z,66.83
2023-04-02T19:45:56.265Z,66.66
2023-04-02T19:48:42.442Z,66.78
2023-04-02T19:51:34.825Z,66.77
2023-04-02T19:54:27.228Z,66.77
2023-04-02T19:57:03.919Z,66.69
2023-04-02T19:59:37.402Z,66.68
2023-04-02T20:02:29.715Z,66.83
2023-04-02T20:05:08.331Z,66.91
2023-04-02T20:08:00.305Z,66.98
2023-04-02T20:10:52.440Z,67.01
2023-04-02T20:13:44.474Z,67.00
2023-04-02T20:16:38.603Z,67.08
2023-04-02T20:19:19.595Z,67.18
2023-04-02T20:22:11.682Z,66.96
2023-04-02T20:25:03.647Z,67.04
2023-04-02T20:27:38.267Z,67.20
2023-04-02T20:30:30.612Z,67.37
2023-04-02T20:33:05.618Z,67.50
2023-04-02T20:35:37.792Z,67.47
2023-04-02T20:38:30.947Z,67.44
2023-04-02T20:41:23.585Z,67.44
2023-04-02T20:44:15.837Z,67.55
2023-04-02T20:46:58.359Z,67.52
2023-04-02T20:49:51.213Z,67.57
2023-04-02T20:52:35.150Z,67.55
2023-04-02T20:55:11.953Z,67.56
2023-04-02T20:57:52.475Z,67.46
2023-04-02T21:00:40.659Z,67.45
2023-04-02T21:03:32.922Z,67.51
2023-04-02T21:06:26.264Z,67.42
2023-04-02T21:09:08.867Z,67.33
2023-04-02T21:12:01.223Z,67.32
2023-04-02T21:14:57.303Z,67.30
2023-04-02T21:17:35.293Z,67.33
2023-04-02T21:20:13.765Z,67.25
2023-04-02T21:23:05.941Z,67.32
2023-04-02T21:26:02.928Z,67.55
2023-04-02T21:28:55.617Z,67.65
2023-04-02T21:31:32.058Z,67.75
2023-04-02T21:34:24.200Z,67.67
2023-04-02T21:37:16.200Z,67.69
2023-04-02T21:40:10.463Z,67.72
2023-04-02T21:43:02.717Z,67.63
2023-04-02T21:45:35.049Z,67.53
2023-04-02T21:48:10.572Z,67.55
2023-04-02T21:50:42.483Z,67.59
2023-04-02T21:53:17.090Z,67.64
2023-04-02T21:55:49.286Z,67.78
2023-04-02T21:58:41.615Z,67.77
2023-04-02T22:01:36.392Z,67.72
2023-04-02T22:04:30.677Z,67.56
2023-04-02T22:07:11.272Z,67.48
2023-04-02T22:10:03.341Z,67.46
2023-04-02T22:12:44.423Z,67.59
2023-04-02T22:15:16.388Z,67.64
2023-04-02T22:17:53.525Z,67.66
2023-04-02T22:20:34.669Z,67.77
2023-04-02T22:23:28.865Z,67.80
2023-04-02T22:26:11.095Z,67.79
2023-04-02T22:29:03.921Z,67.82
2023-04-02T22:31:39.153Z,67.74
2023-04-02T22:34:11.210Z,67.76
2023-04-02T22:36:45.284Z,67.79
2023-04-02T22:39:24.708Z,67.84
2023-04-02T22:42:03.840Z,67.91
2023-04-02T22:44:38.622Z,67.96
2023-04-02T22:47:30.774Z,68.13
2023-04-02T22:50:22.824Z,67.92
2023-04-02T22:53:15.248Z,68.02
2023-04-02T22:56:09.252Z,68.17
2023-04-02T22:59:01.353Z,68.19
2023-04-02T23:01:53.487Z,68.18
2023-04-02T23:04:27.744Z,68.25
2023-04-02T23:07:19.989Z,68.29
2023-04-02T23:10:12.446Z,68.20
2023-04-02T23:13:04.398Z,68.12
2023-04-02T23:15:56.557Z,68.25
2023-04-02T23:18:34.879Z,68.26
2023-04-02T23:21:27.871Z,68.22
2023-04-02T23:24:02.508Z,68.21
2023-04-02T23:26:41.722Z,68.29
2023-04-02T23:29:33.686Z,68.28
2023-04-02T23:32:15.652Z,68.41
2023-04-02T23:34:52.826Z,68.47
2023-04-02T23:37:35.092Z,68.30
2023-04-02T23:40:27.164Z,68.30
2023-04-02T23:43:19.241Z,68.02
2023-04-02T23:46:11.887Z,68.21
2023-04-02T23:48:46.748Z,68.29
2023-04-02T23:51:28.402Z,68.12
2023-04-02T23:54:03.336Z,68.01
2023-04-02T23:56:40.892Z,68.01
2023-04-02T23:59:32.846Z,68.05
